Terminal Aerodrome Forecast
Issued by NWS Omaha/Valley, NE

Home | Current Version | Previous Version | Text Only | Print | Product List | Glossary On
Versions: 1 2 3 4 5 6 7 8 9 10 11 12 13 14 15 16 17 18 19 20 21 22 23 24 25 26 27 28
000
FTUS43 KOAX 280704 AAA
TAFLNK
TAF AMD
KLNK 280704Z 2807/2906 13013G21KT P6SM SCT025 OVC050
      TEMPO 2807/2808 3SM -TSRA BR BKN025CB
     FM281300 18013G20KT P6SM BKN250
     FM281400 28012KT P6SM BKN250
     FM281500 32013KT P6SM BKN250
     FM281700 33011KT P6SM BKN050
     FM282200 36008KT P6SM SKC=

USA.gov is the U.S. government's official web portal to all federal, state and local government web resources and services.